createdAt,value
2023-02-27T00:02:12.550Z,102020.97
2023-02-27T00:04:39.058Z,102000.63
2023-02-27T00:07:05.623Z,102025.19
2023-02-27T00:09:32.137Z,102019.22
2023-02-27T00:11:58.866Z,102016.63
2023-02-27T00:14:25.432Z,102020.38
2023-02-27T00:16:51.969Z,102006.59
2023-02-27T00:19:18.822Z,102014.41
2023-02-27T00:21:45.483Z,101995.28
2023-02-27T00:24:12.402Z,102004.47
2023-02-27T00:26:39.032Z,102019.38
2023-02-27T00:29:06.411Z,102003.91
2023-02-27T00:31:33.158Z,101993.91
2023-02-27T00:33:59.713Z,102021.41
2023-02-27T00:36:26.930Z,102013.56
2023-02-27T00:38:53.660Z,102016.31
2023-02-27T00:41:20.156Z,101996.75
2023-02-27T00:43:46.924Z,101993.78
2023-02-27T00:46:13.588Z,102017.31
2023-02-27T00:48:40.261Z,101999.34
2023-02-27T00:51:06.808Z,101987.63
2023-02-27T00:53:33.330Z,102023.53
2023-02-27T00:56:00.099Z,102004.06
2023-02-27T00:58:26.681Z,101998.09
2023-02-27T01:00:53.378Z,101975.63
2023-02-27T01:03:19.913Z,101992.47
2023-02-27T01:05:46.716Z,102015.91
2023-02-27T01:08:13.318Z,101998.88
2023-02-27T01:10:40.953Z,102005.91
2023-02-27T01:13:07.461Z,101990.91
2023-02-27T01:15:34.324Z,101997.81
2023-02-27T01:18:00.968Z,102005.97
2023-02-27T01:20:27.587Z,101969.75
2023-02-27T01:22:54.117Z,101999.19
2023-02-27T01:25:20.664Z,102014.66
2023-02-27T01:27:47.512Z,102000.88
2023-02-27T01:30:15.812Z,102015.69
2023-02-27T01:32:42.726Z,102013.75
2023-02-27T01:35:09.713Z,102006.91
2023-02-27T01:37:36.474Z,102014.91
2023-02-27T01:40:04.410Z,102011.09
2023-02-27T01:42:31.033Z,102000.78
2023-02-27T01:45:09.637Z,102006.91
2023-02-27T01:47:37.436Z,102000.56
2023-02-27T01:50:04.355Z,102014.41
2023-02-27T01:52:31.134Z,101987.56
2023-02-27T01:54:57.749Z,102013.47
2023-02-27T01:57:24.372Z,101998.56
2023-02-27T01:59:51.129Z,101984.09
2023-02-27T02:02:23.860Z,101987.59
2023-02-27T02:04:50.508Z,102003.19
2023-02-27T02:07:19.691Z,102008.44
2023-02-27T02:09:51.876Z,101961.75
2023-02-27T02:12:21.725Z,102006.34
2023-02-27T02:14:48.192Z,101993.63
2023-02-27T02:17:19.938Z,102002.53
2023-02-27T02:20:22.017Z,102008.88
2023-02-27T02:23:00.747Z,101982.06
2023-02-27T02:25:56.052Z,101999.94
2023-02-27T02:28:34.591Z,102018.25
2023-02-27T02:31:18.782Z,102007.44
2023-02-27T02:34:30.264Z,102011.59
2023-02-27T02:37:17.250Z,102013.38
2023-02-27T02:39:58.918Z,102019.44
2023-02-27T02:42:34.222Z,101924.22
2023-02-27T02:45:19.305Z,102028.19
2023-02-27T02:48:20.746Z,102013.38
2023-02-27T02:51:04.925Z,102027.34
2023-02-27T02:53:39.477Z,102026.28
2023-02-27T02:56:13.752Z,102027.28
2023-02-27T02:59:04.399Z,101984.81
2023-02-27T03:01:39.558Z,101982.78
2023-02-27T03:04:18.503Z,102022.09
2023-02-27T03:06:54.525Z,102032.53
2023-02-27T03:09:29.190Z,101997.56
2023-02-27T03:11:57.535Z,102033.56
2023-02-27T03:14:47.291Z,102026.41
2023-02-27T03:17:19.291Z,102012.63
2023-02-27T03:19:57.215Z,102020.09
2023-02-27T03:22:30.292Z,102019.16
2023-02-27T03:24:59.257Z,102004.50
2023-02-27T03:27:30.718Z,102008.00
2023-02-27T03:30:03.983Z,102025.44
2023-02-27T03:32:45.916Z,102024.41
2023-02-27T03:35:12.787Z,102006.25
2023-02-27T03:37:48.536Z,102024.44
2023-02-27T03:40:45.499Z,102020.94
2023-02-27T03:43:18.500Z,102023.72
2023-02-27T03:45:55.702Z,102018.31
2023-02-27T03:48:22.624Z,102021.84
2023-02-27T03:50:49.417Z,102025.59
2023-02-27T03:53:41.907Z,102019.63
2023-02-27T03:56:09.237Z,102009.91
2023-02-27T03:58:36.186Z,102015.41
2023-02-27T04:01:03.253Z,101996.09
2023-02-27T04:03:32.824Z,102002.72
2023-02-27T04:06:19.453Z,102009.16
2023-02-27T04:09:15.482Z,102040.41
2023-02-27T04:11:56.421Z,102039.69
2023-02-27T04:14:39.543Z,102047.31
2023-02-27T04:17:21.619Z,102002.06
2023-02-27T04:19:51.957Z,102040.06
2023-02-27T04:22:27.200Z,102038.25
2023-02-27T04:24:53.687Z,102049.78
2023-02-27T04:27:40.558Z,102062.06
2023-02-27T04:30:25.834Z,102054.50
2023-02-27T04:33:13.158Z,102055.22
2023-02-27T04:36:00.414Z,102054.47
2023-02-27T04:38:39.414Z,102058.84
2023-02-27T04:41:10.267Z,102058.84
2023-02-27T04:43:39.384Z,102039.13
2023-02-27T04:46:09.098Z,102070.53
2023-02-27T04:48:41.084Z,102069.50
2023-02-27T04:51:13.777Z,102086.38
2023-02-27T04:53:49.545Z,102086.91
2023-02-27T04:56:31.335Z,102062.94
2023-02-27T04:59:09.575Z,102084.59
2023-02-27T05:01:41.129Z,102042.63
2023-02-27T05:04:10.749Z,102058.66
2023-02-27T05:06:40.081Z,102044.19
2023-02-27T05:09:14.432Z,102061.91
2023-02-27T05:11:45.181Z,102083.38
2023-02-27T05:14:36.286Z,102082.25
2023-02-27T05:17:04.459Z,102083.94
2023-02-27T05:19:32.408Z,102092.59
2023-02-27T05:22:23.646Z,102091.81
2023-02-27T05:25:06.351Z,102091.78
2023-02-27T05:27:44.548Z,102094.34
2023-02-27T05:30:22.255Z,102100.06
2023-02-27T05:33:18.562Z,102110.50
2023-02-27T05:36:01.260Z,102085.56
2023-02-27T05:39:02.802Z,102093.47
2023-02-27T05:41:41.830Z,102059.22
2023-02-27T05:44:09.956Z,102098.63
2023-02-27T05:46:39.342Z,102101.13
2023-02-27T05:49:10.720Z,102092.69
2023-02-27T05:51:38.247Z,102109.28
2023-02-27T05:54:48.310Z,102094.41
2023-02-27T05:57:19.947Z,102071.16
2023-02-27T06:00:08.622Z,102116.66
2023-02-27T06:02:35.196Z,102095.94
2023-02-27T06:05:02.092Z,102112.66
2023-02-27T06:07:31.232Z,102129.19
2023-02-27T06:09:58.017Z,102126.47
2023-02-27T06:12:25.343Z,102127.56
2023-02-27T06:14:51.937Z,102118.84
2023-02-27T06:17:18.822Z,102137.88
2023-02-27T06:19:45.421Z,102126.41
2023-02-27T06:22:11.968Z,102148.81
2023-02-27T06:24:38.514Z,102126.31
2023-02-27T06:27:05.285Z,102143.75
2023-02-27T06:29:31.784Z,102153.16
2023-02-27T06:31:58.381Z,102152.94
2023-02-27T06:34:25.084Z,102142.47
2023-02-27T06:36:51.834Z,102157.94
2023-02-27T06:39:18.399Z,102165.00
2023-02-27T06:41:44.908Z,102154.44
2023-02-27T06:44:11.407Z,102155.44
2023-02-27T06:46:38.077Z,102159.63
2023-02-27T06:49:05.498Z,102145.72
2023-02-27T06:51:32.735Z,102159.47
2023-02-27T06:53:59.369Z,102158.75
2023-02-27T06:56:26.256Z,102171.59
2023-02-27T06:58:52.995Z,102164.31
2023-02-27T07:01:19.726Z,102149.53
2023-02-27T07:03:46.652Z,102175.22
2023-02-27T07:06:13.454Z,102182.88
2023-02-27T07:09:01.922Z,102189.84
2023-02-27T07:11:26.480Z,102201.34
2023-02-27T07:13:53.204Z,102193.59
2023-02-27T07:16:19.868Z,102205.22
2023-02-27T07:18:46.393Z,102139.72
2023-02-27T07:21:15.229Z,102204.09
2023-02-27T07:23:42.221Z,102201.69
2023-02-27T07:26:08.978Z,102208.09
2023-02-27T07:28:36.106Z,102205.91
2023-02-27T07:31:02.733Z,102203.84
2023-02-27T07:33:29.762Z,102192.09
2023-02-27T07:35:56.311Z,102199.25
2023-02-27T07:38:24.039Z,102183.06
2023-02-27T07:40:50.698Z,102196.41
2023-02-27T07:43:17.248Z,102194.97
2023-02-27T07:45:45.253Z,102172.81
2023-02-27T07:48:11.924Z,102190.41
2023-02-27T07:50:38.491Z,102204.84
2023-02-27T07:53:07.921Z,102205.47
2023-02-27T07:55:34.549Z,102205.47
2023-02-27T07:58:01.547Z,102184.41
2023-02-27T08:00:28.162Z,102203.81
2023-02-27T08:02:54.797Z,102205.66
2023-02-27T08:05:21.400Z,102186.59
2023-02-27T08:07:48.022Z,102200.81
2023-02-27T08:10:16.638Z,102194.78
2023-02-27T08:12:43.279Z,102216.84
2023-02-27T08:15:10.153Z,102217.28
2023-02-27T08:17:36.730Z,102213.78
2023-02-27T08:20:05.144Z,102218.19
2023-02-27T08:22:32.535Z,102202.66
2023-02-27T08:24:59.210Z,102201.13
2023-02-27T08:27:25.760Z,102197.06
2023-02-27T08:29:52.279Z,102200.09
2023-02-27T08:32:18.957Z,102210.81
2023-02-27T08:34:45.771Z,102205.44
2023-02-27T08:37:12.312Z,102209.28
2023-02-27T08:39:38.863Z,102228.94
2023-02-27T08:42:07.091Z,102207.91
2023-02-27T08:44:34.076Z,102233.00
2023-02-27T08:47:00.830Z,102205.72
2023-02-27T08:49:27.685Z,102219.38
2023-02-27T08:51:54.499Z,102211.16
2023-02-27T08:54:21.391Z,102212.84
2023-02-27T08:56:48.883Z,102207.41
2023-02-27T08:59:15.791Z,102214.16
2023-02-27T09:01:42.568Z,102233.22
2023-02-27T09:04:09.838Z,102207.81
2023-02-27T09:06:36.732Z,102196.84
2023-02-27T09:09:04.136Z,102226.38
2023-02-27T09:11:31.210Z,102219.63
2023-02-27T09:13:58.887Z,102223.28
2023-02-27T09:16:26.176Z,102195.03
2023-02-27T09:18:53.058Z,102205.28
2023-02-27T09:21:20.410Z,102213.75
2023-02-27T09:23:46.956Z,102195.72
2023-02-27T09:26:13.753Z,102207.56
2023-02-27T09:28:40.334Z,102183.00
2023-02-27T09:31:07.972Z,102205.69
2023-02-27T09:33:35.911Z,102197.69
2023-02-27T09:36:02.838Z,102193.47
2023-02-27T09:38:29.638Z,102198.66
2023-02-27T09:40:56.727Z,102201.66
2023-02-27T09:43:31.080Z,102191.75
2023-02-27T09:45:58.350Z,102191.50
2023-02-27T09:48:34.145Z,102199.06
2023-02-27T09:51:01.208Z,102200.03
2023-02-27T09:53:35.946Z,102207.66
2023-02-27T09:56:10.124Z,102196.56
2023-02-27T09:58:46.061Z,102200.50
2023-02-27T10:01:34.788Z,102186.84
2023-02-27T10:04:18.421Z,102178.59
2023-02-27T10:06:51.051Z,102166.72
2023-02-27T10:09:36.431Z,102163.25
2023-02-27T10:12:24.848Z,102165.94
2023-02-27T10:14:55.504Z,102154.59
2023-02-27T10:17:44.934Z,102177.09
2023-02-27T10:20:20.634Z,102173.41
2023-02-27T10:22:48.792Z,102177.88
2023-02-27T10:25:30.716Z,102174.78
2023-02-27T10:28:02.158Z,102174.56
2023-02-27T10:30:32.878Z,102174.03
2023-02-27T10:33:07.422Z,102154.66
2023-02-27T10:35:37.290Z,102150.41
2023-02-27T10:38:12.888Z,102177.91
2023-02-27T10:40:40.455Z,102169.84
2023-02-27T10:43:07.275Z,102164.81
2023-02-27T10:45:35.640Z,102154.09
2023-02-27T10:48:04.850Z,102168.72
2023-02-27T10:50:36.058Z,102159.69
2023-02-27T10:53:07.381Z,102163.91
2023-02-27T10:55:38.255Z,102164.56
2023-02-27T10:58:05.514Z,102153.50
2023-02-27T11:00:46.132Z,102139.50
2023-02-27T11:03:24.623Z,102127.50
2023-02-27T11:06:06.053Z,102118.34
2023-02-27T11:08:34.268Z,102124.41
2023-02-27T11:11:02.929Z,102118.34
2023-02-27T11:13:32.629Z,102119.16
2023-02-27T11:16:03.075Z,102102.16
2023-02-27T11:18:30.687Z,102111.44
2023-02-27T11:21:09.035Z,102104.78
2023-02-27T11:23:35.822Z,102102.84
2023-02-27T11:26:18.022Z,102107.28
2023-02-27T11:28:44.693Z,102106.41
2023-02-27T11:31:21.542Z,102109.94
2023-02-27T11:33:53.754Z,102110.16
2023-02-27T11:36:23.732Z,102090.06
2023-02-27T11:38:52.865Z,102102.84
2023-02-27T11:41:19.610Z,102115.56
2023-02-27T11:43:53.187Z,102117.06
2023-02-27T11:46:47.765Z,102117.59
2023-02-27T11:49:30.580Z,102118.94
2023-02-27T11:52:20.390Z,102122.91
2023-02-27T11:54:57.432Z,102133.56
2023-02-27T11:57:33.742Z,102081.19
2023-02-27T12:00:06.730Z,102109.66
2023-02-27T12:02:48.139Z,102100.56
2023-02-27T12:05:18.727Z,102110.38
2023-02-27T12:07:51.667Z,102100.66
2023-02-27T12:10:22.164Z,102107.88
2023-02-27T12:12:56.609Z,102106.28
2023-02-27T12:15:47.883Z,102111.69
2023-02-27T12:18:24.721Z,102085.50
2023-02-27T12:20:57.556Z,102104.53
2023-02-27T12:23:29.130Z,102086.31
2023-02-27T12:26:03.402Z,102107.13
2023-02-27T12:28:42.147Z,102105.69
2023-02-27T12:31:22.266Z,102120.81
2023-02-27T12:34:01.694Z,102113.56
2023-02-27T12:36:28.322Z,102114.31
2023-02-27T12:38:55.109Z,102138.53
2023-02-27T12:41:28.097Z,102135.59
2023-02-27T12:44:21.994Z,102139.19
2023-02-27T12:46:52.591Z,102116.31
2023-02-27T12:49:30.939Z,102133.09
2023-02-27T12:52:00.721Z,102141.22
2023-02-27T12:54:39.392Z,102123.88
2023-02-27T12:57:32.827Z,102129.59
2023-02-27T13:00:08.272Z,102110.31
2023-02-27T13:02:59.773Z,102139.59
2023-02-27T13:05:38.289Z,102128.59
2023-02-27T13:08:18.608Z,102132.16
2023-02-27T13:10:48.162Z,102127.81
2023-02-27T13:13:19.724Z,102113.06
2023-02-27T13:16:00.649Z,102126.31
2023-02-27T13:18:39.582Z,102115.13
2023-02-27T13:21:20.831Z,102104.03
2023-02-27T13:24:06.193Z,102120.19
2023-02-27T13:27:01.968Z,102110.06
2023-02-27T13:30:11.633Z,102106.28
2023-02-27T13:32:52.341Z,102085.88
2023-02-27T13:35:45.633Z,102113.16
2023-02-27T13:38:42.538Z,102114.16
2023-02-27T13:41:37.054Z,102111.19
2023-02-27T13:44:16.135Z,102110.91
2023-02-27T13:46:42.804Z,102112.09
2023-02-27T13:49:20.092Z,102104.75
2023-02-27T13:51:54.629Z,102100.81
2023-02-27T13:54:24.225Z,102095.78
2023-02-27T13:57:14.889Z,102109.31
2023-02-27T13:59:44.300Z,102094.69
2023-02-27T14:02:11.071Z,102099.94
2023-02-27T14:04:52.059Z,102104.00
2023-02-27T14:07:21.656Z,102082.16
2023-02-27T14:09:50.780Z,102083.06
2023-02-27T14:12:44.152Z,102073.06
2023-02-27T14:15:17.817Z,102087.47
2023-02-27T14:17:46.421Z,102073.38
2023-02-27T14:20:12.933Z,102085.91
2023-02-27T14:22:40.783Z,102093.19
2023-02-27T14:25:10.286Z,102097.22
2023-02-27T14:27:48.850Z,102105.69
2023-02-27T14:30:38.189Z,102089.78
2023-02-27T14:33:08.262Z,102095.22
2023-02-27T14:35:36.108Z,102093.56
2023-02-27T14:38:09.389Z,102099.28
2023-02-27T14:40:40.916Z,102095.94
2023-02-27T14:43:27.543Z,102081.75
2023-02-27T14:45:54.668Z,102095.81
2023-02-27T14:48:27.582Z,102077.28
2023-02-27T14:50:54.632Z,102075.88
2023-02-27T14:53:26.308Z,102090.47
2023-02-27T14:55:55.189Z,102092.53
2023-02-27T14:58:22.448Z,102059.56
2023-02-27T15:00:58.477Z,102081.66
2023-02-27T15:03:39.360Z,102082.06
2023-02-27T15:06:34.029Z,102097.47
2023-02-27T15:09:03.801Z,102091.25
2023-02-27T15:11:30.969Z,102083.28
2023-02-27T15:14:01.386Z,102087.63
2023-02-27T15:16:34.418Z,102092.63
2023-02-27T15:19:05.902Z,102084.00
2023-02-27T15:21:39.265Z,102091.69
2023-02-27T15:24:09.099Z,102088.84
2023-02-27T15:26:38.829Z,102094.84
2023-02-27T15:29:06.471Z,102094.97
2023-02-27T15:31:33.604Z,102068.78
2023-02-27T15:34:01.695Z,102089.19
2023-02-27T15:36:31.021Z,102094.38
2023-02-27T15:39:16.083Z,102085.84
2023-02-27T15:41:48.664Z,102085.00
2023-02-27T15:44:16.993Z,102099.47
2023-02-27T15:46:44.776Z,102081.50
2023-02-27T15:49:19.777Z,102087.00
2023-02-27T15:51:47.643Z,102103.66
2023-02-27T15:54:14.936Z,102088.50
2023-02-27T15:56:42.136Z,102090.94
2023-02-27T15:59:13.143Z,102107.59
2023-02-27T16:01:39.902Z,102120.59
2023-02-27T16:04:14.965Z,102125.66
2023-02-27T16:06:48.413Z,102126.75
2023-02-27T16:09:20.953Z,102126.00
2023-02-27T16:11:47.499Z,102112.22
2023-02-27T16:14:41.146Z,102123.41
2023-02-27T16:17:24.490Z,102126.72
2023-02-27T16:19:51.102Z,102128.47
2023-02-27T16:22:19.922Z,102123.78
2023-02-27T16:24:46.787Z,102124.88
2023-02-27T16:27:16.569Z,102127.88
2023-02-27T16:29:44.894Z,102128.81
2023-02-27T16:32:30.153Z,102125.00
2023-02-27T16:35:02.084Z,102130.09
2023-02-27T16:37:37.105Z,102134.28
2023-02-27T16:40:16.275Z,102126.22
2023-02-27T16:42:44.509Z,102134.28
2023-02-27T16:45:16.342Z,102137.72
2023-02-27T16:47:43.132Z,102131.69
2023-02-27T16:50:21.901Z,102136.28
2023-02-27T16:52:48.517Z,102130.88
2023-02-27T16:55:15.187Z,102136.63
2023-02-27T16:57:41.716Z,102122.13
2023-02-27T17:00:11.714Z,102138.47
2023-02-27T17:02:38.771Z,102116.53
2023-02-27T17:05:06.011Z,102137.19
2023-02-27T17:07:32.810Z,102137.41
2023-02-27T17:10:00.345Z,102126.69
2023-02-27T17:12:27.368Z,102130.94
2023-02-27T17:14:53.995Z,102152.47
2023-02-27T17:17:20.575Z,102148.50
2023-02-27T17:19:47.363Z,102140.06
2023-02-27T17:22:15.180Z,102155.88
2023-02-27T17:24:41.884Z,102140.50
2023-02-27T17:27:09.399Z,102154.41
2023-02-27T17:29:38.583Z,102153.75
2023-02-27T17:32:05.511Z,102145.03
2023-02-27T17:34:32.191Z,102135.28
2023-02-27T17:36:58.932Z,102127.44
2023-02-27T17:39:25.514Z,102157.44
2023-02-27T17:41:53.188Z,102136.38
2023-02-27T17:44:20.159Z,102164.88
2023-02-27T17:46:46.695Z,102144.50
2023-02-27T17:49:13.213Z,102151.72
2023-02-27T17:51:40.055Z,102154.88
2023-02-27T17:54:06.970Z,102167.47
2023-02-27T17:56:36.739Z,102180.78
2023-02-27T17:59:04.048Z,102079.50
2023-02-27T18:01:30.671Z,102157.75
2023-02-27T18:03:57.547Z,102186.44
2023-02-27T18:06:24.829Z,102183.69
2023-02-27T18:08:51.520Z,102171.91
2023-02-27T18:11:19.641Z,102176.06
2023-02-27T18:13:46.802Z,102187.78
2023-02-27T18:16:13.879Z,102188.75
2023-02-27T18:18:42.209Z,102190.94
2023-02-27T18:21:20.736Z,102198.19
2023-02-27T18:23:48.253Z,102186.88
2023-02-27T18:26:32.543Z,102183.06
2023-02-27T18:29:04.905Z,102191.97
2023-02-27T18:31:37.749Z,102203.63
2023-02-27T18:34:04.509Z,102178.25
2023-02-27T18:36:32.219Z,102193.97
2023-02-27T18:38:59.824Z,102166.41
2023-02-27T18:41:26.545Z,102183.28
2023-02-27T18:43:53.290Z,102181.16
2023-02-27T18:46:20.154Z,102181.09
2023-02-27T18:48:47.482Z,102207.78
2023-02-27T18:51:15.541Z,102187.47
2023-02-27T18:53:44.250Z,102201.97
2023-02-27T18:56:11.619Z,102208.00
2023-02-27T18:58:38.759Z,102207.59
2023-02-27T19:01:07.283Z,102192.13
2023-02-27T19:03:35.785Z,102196.16
2023-02-27T19:06:02.696Z,102184.72
2023-02-27T19:08:29.630Z,102209.31
2023-02-27T19:10:57.000Z,102186.84
2023-02-27T19:13:24.288Z,102190.19
2023-02-27T19:15:51.666Z,102190.66
2023-02-27T19:18:18.319Z,102189.06
2023-02-27T19:20:44.900Z,102202.81
2023-02-27T19:23:11.757Z,102203.13
2023-02-27T19:25:38.347Z,102213.50
2023-02-27T19:28:06.369Z,102215.63
2023-02-27T19:30:33.072Z,102211.53
2023-02-27T19:32:59.623Z,102180.78
2023-02-27T19:35:26.238Z,102189.72
2023-02-27T19:37:57.077Z,102179.31
2023-02-27T19:40:25.393Z,102189.38
2023-02-27T19:42:52.021Z,102189.31
2023-02-27T19:45:18.549Z,102205.78
2023-02-27T19:47:46.632Z,102195.47
2023-02-27T19:50:13.292Z,102209.47
2023-02-27T19:52:40.332Z,102213.53
2023-02-27T19:55:07.502Z,102189.47
2023-02-27T19:57:35.091Z,102217.50
2023-02-27T20:00:01.681Z,102205.47
2023-02-27T20:02:29.122Z,102219.88
2023-02-27T20:04:55.661Z,102215.31
2023-02-27T20:07:22.804Z,102222.53
2023-02-27T20:09:49.817Z,102227.69
2023-02-27T20:12:16.436Z,102202.03
2023-02-27T20:14:43.009Z,102221.09
2023-02-27T20:17:09.774Z,102213.47
2023-02-27T20:19:36.738Z,102210.75
2023-02-27T20:22:04.084Z,102223.13
2023-02-27T20:24:30.806Z,102210.91
2023-02-27T20:26:59.207Z,102226.31
2023-02-27T20:29:27.092Z,102206.88
2023-02-27T20:31:55.443Z,102230.59
2023-02-27T20:34:24.789Z,102219.09
2023-02-27T20:36:52.208Z,102216.22
2023-02-27T20:39:19.678Z,102223.81
2023-02-27T20:41:46.666Z,102230.66
2023-02-27T20:44:13.421Z,102221.28
2023-02-27T20:46:41.482Z,102211.03
2023-02-27T20:49:10.184Z,102217.13
2023-02-27T20:51:38.524Z,102183.91
2023-02-27T20:54:07.812Z,102209.97
2023-02-27T20:56:41.196Z,102215.91
2023-02-27T20:59:10.064Z,102211.59
2023-02-27T21:01:38.357Z,102209.00
2023-02-27T21:04:05.382Z,102217.41
2023-02-27T21:06:32.173Z,102192.41
2023-02-27T21:09:05.267Z,102216.38
2023-02-27T21:11:33.266Z,102214.75
2023-02-27T21:14:04.095Z,102211.41
2023-02-27T21:16:30.633Z,102118.91
2023-02-27T21:18:57.149Z,102213.69
2023-02-27T21:21:29.452Z,102206.91
2023-02-27T21:23:56.930Z,102203.50
2023-02-27T21:26:26.414Z,102219.88
2023-02-27T21:28:58.454Z,102185.63
2023-02-27T21:31:26.837Z,102209.75
2023-02-27T21:33:54.032Z,102230.31
2023-02-27T21:36:28.675Z,102220.31
2023-02-27T21:38:59.836Z,102202.59
2023-02-27T21:41:28.009Z,102241.16
2023-02-27T21:43:59.320Z,102222.31
2023-02-27T21:46:26.141Z,102238.13
2023-02-27T21:48:52.772Z,102250.22
2023-02-27T21:51:32.972Z,102248.53
2023-02-27T21:54:01.768Z,102239.81
2023-02-27T21:56:29.744Z,102240.69
2023-02-27T21:58:59.900Z,102226.13
2023-02-27T22:01:26.511Z,102214.97
2023-02-27T22:03:54.022Z,102225.31
2023-02-27T22:06:22.106Z,102239.13
2023-02-27T22:08:52.862Z,102239.41
2023-02-27T22:11:19.394Z,102242.50
2023-02-27T22:13:46.151Z,102239.38
2023-02-27T22:16:13.107Z,102237.09
2023-02-27T22:18:40.887Z,102246.00
2023-02-27T22:21:09.817Z,102228.47
2023-02-27T22:23:37.875Z,102227.50
2023-02-27T22:26:07.457Z,102200.69
2023-02-27T22:28:35.215Z,102148.88
2023-02-27T22:31:10.860Z,102226.91
2023-02-27T22:33:38.703Z,102252.59
2023-02-27T22:36:10.012Z,102241.81
2023-02-27T22:38:36.947Z,102255.72
2023-02-27T22:41:15.454Z,102244.34
2023-02-27T22:43:44.615Z,102256.56
2023-02-27T22:46:13.221Z,102252.78
2023-02-27T22:48:40.258Z,102236.56
2023-02-27T22:51:12.531Z,102257.38
2023-02-27T22:53:39.938Z,102255.97
2023-02-27T22:56:16.606Z,102251.38
2023-02-27T22:58:44.699Z,102231.59
2023-02-27T23:01:13.726Z,102272.28
2023-02-27T23:03:42.838Z,102268.34
2023-02-27T23:06:13.087Z,102275.53
2023-02-27T23:08:40.058Z,102271.59
2023-02-27T23:11:06.957Z,102280.31
2023-02-27T23:13:33.633Z,102279.19
2023-02-27T23:16:01.137Z,102283.16
2023-02-27T23:18:28.358Z,102281.44
2023-02-27T23:20:54.926Z,102260.38
2023-02-27T23:23:21.515Z,102272.91
2023-02-27T23:25:48.578Z,102292.22
2023-02-27T23:28:15.325Z,102254.41
2023-02-27T23:30:42.896Z,102274.84
2023-02-27T23:33:09.445Z,102276.69
2023-02-27T23:35:36.056Z,102246.41
2023-02-27T23:38:03.486Z,102267.22
2023-02-27T23:40:30.234Z,102278.22
2023-02-27T23:42:56.802Z,102291.16
2023-02-27T23:45:23.484Z,102280.63
2023-02-27T23:47:54.185Z,102280.34
2023-02-27T23:50:23.257Z,102294.25
2023-02-27T23:52:50.913Z,102282.41
2023-02-27T23:55:19.086Z,102277.50
2023-02-27T23:57:45.886Z,102298.22
